sensor_id;sensor_type;location;lat;lon;timestamp;P1;durP1;ratioP1;P2;durP2;ratioP2
3280;SDS011;1652;51.318;6.202;2023-02-01T00:01:12;25.10;;;11.90;;
3280;SDS011;1652;51.318;6.202;2023-02-01T00:03:39;19.57;;;10.53;;
3280;SDS011;1652;51.318;6.202;2023-02-01T00:06:06;25.50;;;12.20;;
3280;SDS011;1652;51.318;6.202;2023-02-01T00:08:33;33.20;;;12.13;;
3280;SDS011;1652;51.318;6.202;2023-02-01T00:11:10;30.37;;;10.93;;
3280;SDS011;1652;51.318;6.202;2023-02-01T00:13:39;33.47;;;10.47;;
3280;SDS011;1652;51.318;6.202;2023-02-01T00:19:03;25.17;;;10.93;;
3280;SDS011;1652;51.318;6.202;2023-02-01T00:21:40;20.90;;;9.90;;
3280;SDS011;1652;51.318;6.202;2023-02-01T00:24:16;22.63;;;7.60;;
3280;SDS011;1652;51.318;6.202;2023-02-01T00:26:49;23.97;;;8.33;;
3280;SDS011;1652;51.318;6.202;2023-02-01T00:29:20;19.10;;;8.70;;
3280;SDS011;1652;51.318;6.202;2023-02-01T00:31:51;22.50;;;7.63;;
3280;SDS011;1652;51.318;6.202;2023-02-01T00:34:18;12.03;;;7.30;;
3280;SDS011;1652;51.318;6.202;2023-02-01T00:36:49;21.73;;;7.50;;
3280;SDS011;1652;51.318;6.202;2023-02-01T00:39:16;20.40;;;7.03;;
3280;SDS011;1652;51.318;6.202;2023-02-01T00:41:43;31.90;;;8.70;;
3280;SDS011;1652;51.318;6.202;2023-02-01T00:44:10;17.80;;;7.53;;
3280;SDS011;1652;51.318;6.202;2023-02-01T00:46:37;13.47;;;5.80;;
3280;SDS011;1652;51.318;6.202;2023-02-01T00:49:06;17.33;;;7.03;;
3280;SDS011;1652;51.318;6.202;2023-02-01T00:51:36;23.70;;;6.93;;
3280;SDS011;1652;51.318;6.202;2023-02-01T00:54:03;12.63;;;5.27;;
3280;SDS011;1652;51.318;6.202;2023-02-01T00:56:30;21.40;;;6.50;;
3280;SDS011;1652;51.318;6.202;2023-02-01T00:59:00;18.67;;;6.00;;
3280;SDS011;1652;51.318;6.202;2023-02-01T01:01:29;18.23;;;5.80;;
3280;SDS011;1652;51.318;6.202;2023-02-01T01:03:56;11.00;;;5.10;;
3280;SDS011;1652;51.318;6.202;2023-02-01T01:06:26;17.47;;;4.70;;
3280;SDS011;1652;51.318;6.202;2023-02-01T01:08:58;13.00;;;4.30;;
3280;SDS011;1652;51.318;6.202;2023-02-01T01:11:27;6.90;;;3.93;;
3280;SDS011;1652;51.318;6.202;2023-02-01T01:13:57;8.13;;;4.47;;
3280;SDS011;1652;51.318;6.202;2023-02-01T01:16:25;25.80;;;4.70;;
3280;SDS011;1652;51.318;6.202;2023-02-01T01:18:54;8.80;;;3.53;;
3280;SDS011;1652;51.318;6.202;2023-02-01T01:21:21;13.10;;;4.50;;
3280;SDS011;1652;51.318;6.202;2023-02-01T01:23:48;11.90;;;4.57;;
3280;SDS011;1652;51.318;6.202;2023-02-01T01:26:16;21.40;;;5.20;;
3280;SDS011;1652;51.318;6.202;2023-02-01T01:28:45;13.73;;;4.50;;
3280;SDS011;1652;51.318;6.202;2023-02-01T01:31:13;12.60;;;4.20;;
3280;SDS011;1652;51.318;6.202;2023-02-01T01:33:42;13.83;;;4.47;;
3280;SDS011;1652;51.318;6.202;2023-02-01T01:36:11;11.50;;;4.50;;
3280;SDS011;1652;51.318;6.202;2023-02-01T01:38:39;13.10;;;4.00;;
3280;SDS011;1652;51.318;6.202;2023-02-01T01:41:06;26.10;;;5.67;;
3280;SDS011;1652;51.318;6.202;2023-02-01T01:46:41;14.73;;;4.30;;
3280;SDS011;1652;51.318;6.202;2023-02-01T01:49:15;18.87;;;4.97;;
3280;SDS011;1652;51.318;6.202;2023-02-01T01:51:49;18.57;;;4.90;;
3280;SDS011;1652;51.318;6.202;2023-02-01T01:56:50;11.67;;;3.60;;
3280;SDS011;1652;51.318;6.202;2023-02-01T01:59:20;10.00;;;4.40;;
3280;SDS011;1652;51.318;6.202;2023-02-01T02:01:51;10.63;;;3.97;;
3280;SDS011;1652;51.318;6.202;2023-02-01T02:04:21;18.10;;;5.00;;
3280;SDS011;1652;51.318;6.202;2023-02-01T02:07:00;19.10;;;5.67;;
3280;SDS011;1652;51.318;6.202;2023-02-01T02:09:33;15.23;;;4.40;;
3280;SDS011;1652;51.318;6.202;2023-02-01T02:12:00;26.43;;;4.90;;
3280;SDS011;1652;51.318;6.202;2023-02-01T02:14:41;9.30;;;4.27;;
3280;SDS011;1652;51.318;6.202;2023-02-01T02:20:40;13.37;;;4.20;;
3280;SDS011;1652;51.318;6.202;2023-02-01T02:26:31;19.43;;;4.53;;
3280;SDS011;1652;51.318;6.202;2023-02-01T02:40:41;13.00;;;4.17;;
3280;SDS011;1652;51.318;6.202;2023-02-01T02:46:44;27.80;;;5.00;;
3280;SDS011;1652;51.318;6.202;2023-02-01T02:49:38;22.77;;;6.60;;
3280;SDS011;1652;51.318;6.202;2023-02-01T02:52:12;19.10;;;5.50;;
3280;SDS011;1652;51.318;6.202;2023-02-01T02:55:04;18.50;;;5.27;;
3280;SDS011;1652;51.318;6.202;2023-02-01T02:57:36;13.73;;;4.83;;
3280;SDS011;1652;51.318;6.202;2023-02-01T03:00:27;7.40;;;5.60;;
3280;SDS011;1652;51.318;6.202;2023-02-01T03:03:14;16.13;;;4.20;;
3280;SDS011;1652;51.318;6.202;2023-02-01T03:05:59;23.93;;;6.20;;
3280;SDS011;1652;51.318;6.202;2023-02-01T03:08:29;25.57;;;5.73;;
3280;SDS011;1652;51.318;6.202;2023-02-01T03:11:13;21.50;;;5.10;;
3280;SDS011;1652;51.318;6.202;2023-02-01T03:16:28;15.20;;;5.30;;
3280;SDS011;1652;51.318;6.202;2023-02-01T03:24:37;12.70;;;5.07;;
3280;SDS011;1652;51.318;6.202;2023-02-01T03:29:38;16.37;;;5.83;;
3280;SDS011;1652;51.318;6.202;2023-02-01T03:32:10;13.40;;;5.73;;
3280;SDS011;1652;51.318;6.202;2023-02-01T03:34:37;17.90;;;5.10;;
3280;SDS011;1652;51.318;6.202;2023-02-01T03:37:06;19.40;;;4.97;;
3280;SDS011;1652;51.318;6.202;2023-02-01T03:42:12;13.47;;;5.30;;
3280;SDS011;1652;51.318;6.202;2023-02-01T03:44:49;12.27;;;4.43;;
3280;SDS011;1652;51.318;6.202;2023-02-01T03:47:41;15.50;;;4.60;;
3280;SDS011;1652;51.318;6.202;2023-02-01T03:50:12;20.23;;;5.20;;
3280;SDS011;1652;51.318;6.202;2023-02-01T03:52:46;16.07;;;4.50;;
3280;SDS011;1652;51.318;6.202;2023-02-01T03:55:20;19.97;;;4.10;;
3280;SDS011;1652;51.318;6.202;2023-02-01T03:57:55;29.27;;;4.57;;
3280;SDS011;1652;51.318;6.202;2023-02-01T04:00:27;13.73;;;4.07;;
3280;SDS011;1652;51.318;6.202;2023-02-01T04:02:54;9.97;;;4.40;;
3280;SDS011;1652;51.318;6.202;2023-02-01T04:05:22;18.73;;;3.73;;
3280;SDS011;1652;51.318;6.202;2023-02-01T04:07:49;19.13;;;4.57;;
3280;SDS011;1652;51.318;6.202;2023-02-01T04:10:23;19.73;;;5.37;;
3280;SDS011;1652;51.318;6.202;2023-02-01T04:12:50;15.80;;;3.50;;
3280;SDS011;1652;51.318;6.202;2023-02-01T04:15:18;28.03;;;5.23;;
3280;SDS011;1652;51.318;6.202;2023-02-01T04:17:45;15.03;;;3.77;;
3280;SDS011;1652;51.318;6.202;2023-02-01T04:20:12;24.53;;;5.40;;
3280;SDS011;1652;51.318;6.202;2023-02-01T04:22:38;21.07;;;4.53;;
3280;SDS011;1652;51.318;6.202;2023-02-01T04:25:05;26.87;;;6.03;;
3280;SDS011;1652;51.318;6.202;2023-02-01T04:27:34;12.43;;;4.20;;
3280;SDS011;1652;51.318;6.202;2023-02-01T04:30:03;18.60;;;3.70;;
3280;SDS011;1652;51.318;6.202;2023-02-01T04:32:30;26.57;;;4.97;;
3280;SDS011;1652;51.318;6.202;2023-02-01T04:35:04;22.07;;;4.20;;
3280;SDS011;1652;51.318;6.202;2023-02-01T04:37:35;16.97;;;3.80;;
3280;SDS011;1652;51.318;6.202;2023-02-01T04:40:05;14.17;;;4.13;;
3280;SDS011;1652;51.318;6.202;2023-02-01T04:42:32;20.23;;;4.70;;
3280;SDS011;1652;51.318;6.202;2023-02-01T04:45:00;14.93;;;4.40;;
3280;SDS011;1652;51.318;6.202;2023-02-01T04:47:29;21.33;;;4.63;;
3280;SDS011;1652;51.318;6.202;2023-02-01T04:49:56;28.83;;;4.57;;
3280;SDS011;1652;51.318;6.202;2023-02-01T04:52:23;16.07;;;4.93;;
3280;SDS011;1652;51.318;6.202;2023-02-01T04:54:50;14.73;;;4.57;;
3280;SDS011;1652;51.318;6.202;2023-02-01T04:57:20;25.47;;;4.20;;
3280;SDS011;1652;51.318;6.202;2023-02-01T04:59:47;21.43;;;4.00;;
3280;SDS011;1652;51.318;6.202;2023-02-01T05:02:14;19.03;;;5.07;;
3280;SDS011;1652;51.318;6.202;2023-02-01T05:04:41;22.17;;;5.30;;
3280;SDS011;1652;51.318;6.202;2023-02-01T05:07:08;16.23;;;3.93;;
3280;SDS011;1652;51.318;6.202;2023-02-01T05:09:38;23.97;;;4.43;;
3280;SDS011;1652;51.318;6.202;2023-02-01T05:12:05;19.93;;;4.40;;
3280;SDS011;1652;51.318;6.202;2023-02-01T05:14:54;20.77;;;5.03;;
3280;SDS011;1652;51.318;6.202;2023-02-01T05:17:21;18.43;;;4.03;;
3280;SDS011;1652;51.318;6.202;2023-02-01T05:19:48;13.40;;;3.80;;
3280;SDS011;1652;51.318;6.202;2023-02-01T05:22:14;21.00;;;4.90;;
3280;SDS011;1652;51.318;6.202;2023-02-01T05:24:41;19.07;;;3.30;;
3280;SDS011;1652;51.318;6.202;2023-02-01T05:27:11;14.93;;;3.30;;
3280;SDS011;1652;51.318;6.202;2023-02-01T05:29:39;16.40;;;4.20;;
3280;SDS011;1652;51.318;6.202;2023-02-01T05:32:08;22.43;;;4.13;;
3280;SDS011;1652;51.318;6.202;2023-02-01T05:34:47;15.10;;;4.10;;
3280;SDS011;1652;51.318;6.202;2023-02-01T05:37:14;15.37;;;5.20;;
3280;SDS011;1652;51.318;6.202;2023-02-01T05:39:41;20.37;;;3.80;;
3280;SDS011;1652;51.318;6.202;2023-02-01T05:42:11;18.90;;;5.00;;
3280;SDS011;1652;51.318;6.202;2023-02-01T05:44:38;14.30;;;3.10;;
3280;SDS011;1652;51.318;6.202;2023-02-01T05:47:05;25.30;;;4.03;;
3280;SDS011;1652;51.318;6.202;2023-02-01T05:49:32;27.20;;;3.80;;
3280;SDS011;1652;51.318;6.202;2023-02-01T05:51:59;17.90;;;3.67;;
3280;SDS011;1652;51.318;6.202;2023-02-01T05:54:26;9.20;;;3.43;;
3280;SDS011;1652;51.318;6.202;2023-02-01T05:56:53;26.53;;;4.03;;
3280;SDS011;1652;51.318;6.202;2023-02-01T05:59:22;21.63;;;4.13;;
3280;SDS011;1652;51.318;6.202;2023-02-01T06:01:49;24.03;;;4.67;;
3280;SDS011;1652;51.318;6.202;2023-02-01T06:04:16;18.63;;;4.47;;
3280;SDS011;1652;51.318;6.202;2023-02-01T06:06:43;14.57;;;4.63;;
3280;SDS011;1652;51.318;6.202;2023-02-01T06:09:14;18.07;;;4.20;;
3280;SDS011;1652;51.318;6.202;2023-02-01T06:11:55;31.67;;;5.07;;
3280;SDS011;1652;51.318;6.202;2023-02-01T06:14:29;12.70;;;3.93;;
3280;SDS011;1652;51.318;6.202;2023-02-01T06:16:56;16.80;;;4.37;;
3280;SDS011;1652;51.318;6.202;2023-02-01T06:19:23;22.23;;;3.30;;
3280;SDS011;1652;51.318;6.202;2023-02-01T06:21:59;13.17;;;3.87;;
3280;SDS011;1652;51.318;6.202;2023-02-01T06:24:26;28.67;;;4.10;;
3280;SDS011;1652;51.318;6.202;2023-02-01T06:26:56;30.70;;;4.87;;
3280;SDS011;1652;51.318;6.202;2023-02-01T06:29:24;14.67;;;3.57;;
3280;SDS011;1652;51.318;6.202;2023-02-01T06:31:52;13.97;;;3.80;;
3280;SDS011;1652;51.318;6.202;2023-02-01T06:34:19;8.87;;;2.90;;
3280;SDS011;1652;51.318;6.202;2023-02-01T06:36:48;18.20;;;4.80;;
3280;SDS011;1652;51.318;6.202;2023-02-01T06:39:15;21.93;;;3.63;;
3280;SDS011;1652;51.318;6.202;2023-02-01T06:41:47;17.37;;;4.10;;
3280;SDS011;1652;51.318;6.202;2023-02-01T06:44:20;22.50;;;4.40;;
3280;SDS011;1652;51.318;6.202;2023-02-01T06:46:50;14.60;;;5.20;;
3280;SDS011;1652;51.318;6.202;2023-02-01T06:49:17;22.97;;;4.63;;
3280;SDS011;1652;51.318;6.202;2023-02-01T06:51:46;15.57;;;4.70;;
3280;SDS011;1652;51.318;6.202;2023-02-01T06:54:13;17.57;;;5.13;;
3280;SDS011;1652;51.318;6.202;2023-02-01T06:56:40;12.13;;;3.57;;
3280;SDS011;1652;51.318;6.202;2023-02-01T06:59:07;16.40;;;3.63;;
3280;SDS011;1652;51.318;6.202;2023-02-01T07:01:34;15.70;;;3.97;;
3280;SDS011;1652;51.318;6.202;2023-02-01T07:04:01;28.07;;;5.63;;
3280;SDS011;1652;51.318;6.202;2023-02-01T07:06:28;15.57;;;3.43;;
3280;SDS011;1652;51.318;6.202;2023-02-01T07:08:55;16.30;;;4.00;;
3280;SDS011;1652;51.318;6.202;2023-02-01T07:11:23;16.27;;;3.70;;
3280;SDS011;1652;51.318;6.202;2023-02-01T07:13:50;20.27;;;4.50;;
3280;SDS011;1652;51.318;6.202;2023-02-01T07:16:18;11.27;;;4.50;;
3280;SDS011;1652;51.318;6.202;2023-02-01T07:18:46;11.93;;;3.73;;
3280;SDS011;1652;51.318;6.202;2023-02-01T07:21:13;16.77;;;4.13;;
3280;SDS011;1652;51.318;6.202;2023-02-01T07:23:40;9.27;;;3.63;;
3280;SDS011;1652;51.318;6.202;2023-02-01T07:26:07;26.17;;;4.47;;
3280;SDS011;1652;51.318;6.202;2023-02-01T07:28:38;11.03;;;3.10;;
3280;SDS011;1652;51.318;6.202;2023-02-01T07:31:09;17.03;;;3.90;;
3280;SDS011;1652;51.318;6.202;2023-02-01T07:33:41;13.13;;;3.10;;
3280;SDS011;1652;51.318;6.202;2023-02-01T07:36:10;24.63;;;4.23;;
3280;SDS011;1652;51.318;6.202;2023-02-01T07:38:38;7.23;;;2.63;;
3280;SDS011;1652;51.318;6.202;2023-02-01T07:41:06;32.67;;;5.80;;
3280;SDS011;1652;51.318;6.202;2023-02-01T07:43:34;10.10;;;3.10;;
3280;SDS011;1652;51.318;6.202;2023-02-01T07:46:02;19.83;;;4.40;;
3280;SDS011;1652;51.318;6.202;2023-02-01T07:48:29;25.47;;;4.47;;
3280;SDS011;1652;51.318;6.202;2023-02-01T07:51:01;23.50;;;6.90;;
3280;SDS011;1652;51.318;6.202;2023-02-01T07:53:30;16.60;;;4.47;;
3280;SDS011;1652;51.318;6.202;2023-02-01T07:55:58;18.57;;;3.57;;
3280;SDS011;1652;51.318;6.202;2023-02-01T07:58:25;18.50;;;4.20;;
3280;SDS011;1652;51.318;6.202;2023-02-01T08:00:52;10.57;;;4.13;;
3280;SDS011;1652;51.318;6.202;2023-02-01T08:03:38;20.27;;;3.37;;
3280;SDS011;1652;51.318;6.202;2023-02-01T08:06:05;20.20;;;4.47;;
3280;SDS011;1652;51.318;6.202;2023-02-01T08:08:32;20.03;;;3.40;;
3280;SDS011;1652;51.318;6.202;2023-02-01T08:10:59;18.67;;;3.70;;
3280;SDS011;1652;51.318;6.202;2023-02-01T08:13:27;26.83;;;4.97;;
3280;SDS011;1652;51.318;6.202;2023-02-01T08:16:01;18.03;;;3.90;;
3280;SDS011;1652;51.318;6.202;2023-02-01T08:18:30;17.80;;;4.83;;
3280;SDS011;1652;51.318;6.202;2023-02-01T08:21:01;13.80;;;3.60;;
3280;SDS011;1652;51.318;6.202;2023-02-01T08:23:49;8.83;;;2.83;;
3280;SDS011;1652;51.318;6.202;2023-02-01T08:26:17;20.23;;;3.03;;
3280;SDS011;1652;51.318;6.202;2023-02-01T08:28:47;16.77;;;4.30;;
3280;SDS011;1652;51.318;6.202;2023-02-01T08:31:27;12.50;;;3.17;;
3280;SDS011;1652;51.318;6.202;2023-02-01T08:33:56;17.13;;;2.93;;
3280;SDS011;1652;51.318;6.202;2023-02-01T08:36:25;15.10;;;3.43;;
3280;SDS011;1652;51.318;6.202;2023-02-01T08:38:53;17.50;;;4.17;;
3280;SDS011;1652;51.318;6.202;2023-02-01T08:41:21;20.53;;;4.23;;
3280;SDS011;1652;51.318;6.202;2023-02-01T08:43:50;16.83;;;3.37;;
3280;SDS011;1652;51.318;6.202;2023-02-01T08:46:17;14.00;;;3.90;;
3280;SDS011;1652;51.318;6.202;2023-02-01T08:48:45;10.80;;;2.90;;
3280;SDS011;1652;51.318;6.202;2023-02-01T08:51:13;19.07;;;4.00;;
3280;SDS011;1652;51.318;6.202;2023-02-01T08:53:41;20.57;;;3.80;;
3280;SDS011;1652;51.318;6.202;2023-02-01T08:56:09;22.47;;;4.70;;
3280;SDS011;1652;51.318;6.202;2023-02-01T08:58:38;12.90;;;3.40;;
3280;SDS011;1652;51.318;6.202;2023-02-01T09:01:05;14.67;;;3.50;;
3280;SDS011;1652;51.318;6.202;2023-02-01T09:03:33;25.80;;;4.83;;
3280;SDS011;1652;51.318;6.202;2023-02-01T09:06:01;32.90;;;5.00;;
3280;SDS011;1652;51.318;6.202;2023-02-01T09:08:29;18.30;;;4.00;;
3280;SDS011;1652;51.318;6.202;2023-02-01T09:11:00;17.30;;;2.80;;
3280;SDS011;1652;51.318;6.202;2023-02-01T09:13:31;25.60;;;4.53;;
3280;SDS011;1652;51.318;6.202;2023-02-01T09:15:59;18.90;;;4.83;;
3280;SDS011;1652;51.318;6.202;2023-02-01T09:18:26;23.67;;;3.43;;
3280;SDS011;1652;51.318;6.202;2023-02-01T09:20:53;12.13;;;3.73;;
3280;SDS011;1652;51.318;6.202;2023-02-01T09:23:20;19.33;;;3.80;;
3280;SDS011;1652;51.318;6.202;2023-02-01T09:25:47;19.97;;;4.80;;
3280;SDS011;1652;51.318;6.202;2023-02-01T09:28:16;17.13;;;4.13;;
3280;SDS011;1652;51.318;6.202;2023-02-01T09:30:44;15.40;;;4.50;;
3280;SDS011;1652;51.318;6.202;2023-02-01T09:33:11;13.73;;;4.80;;
3280;SDS011;1652;51.318;6.202;2023-02-01T09:35:38;23.17;;;4.47;;
3280;SDS011;1652;51.318;6.202;2023-02-01T09:38:05;15.40;;;5.40;;
3280;SDS011;1652;51.318;6.202;2023-02-01T09:40:33;21.73;;;5.00;;
3280;SDS011;1652;51.318;6.202;2023-02-01T09:43:11;13.87;;;4.00;;
3280;SDS011;1652;51.318;6.202;2023-02-01T09:45:54;11.60;;;4.53;;
3280;SDS011;1652;51.318;6.202;2023-02-01T09:48:40;17.60;;;3.70;;
3280;SDS011;1652;51.318;6.202;2023-02-01T09:51:12;9.13;;;3.37;;
3280;SDS011;1652;51.318;6.202;2023-02-01T09:53:44;23.63;;;4.10;;
3280;SDS011;1652;51.318;6.202;2023-02-01T09:56:21;20.77;;;5.03;;
3280;SDS011;1652;51.318;6.202;2023-02-01T10:01:21;19.97;;;3.50;;
3280;SDS011;1652;51.318;6.202;2023-02-01T10:03:51;13.13;;;4.30;;
3280;SDS011;1652;51.318;6.202;2023-02-01T10:06:33;17.00;;;3.70;;
3280;SDS011;1652;51.318;6.202;2023-02-01T10:14:52;18.97;;;3.97;;
3280;SDS011;1652;51.318;6.202;2023-02-01T10:23:11;16.57;;;4.00;;
3280;SDS011;1652;51.318;6.202;2023-02-01T10:26:01;17.10;;;3.67;;
3280;SDS011;1652;51.318;6.202;2023-02-01T10:28:32;16.07;;;3.97;;
3280;SDS011;1652;51.318;6.202;2023-02-01T10:31:02;13.90;;;4.57;;
3280;SDS011;1652;51.318;6.202;2023-02-01T10:33:41;7.13;;;3.40;;
3280;SDS011;1652;51.318;6.202;2023-02-01T10:36:40;31.40;;;4.50;;
3280;SDS011;1652;51.318;6.202;2023-02-01T10:39:10;23.37;;;4.47;;
3280;SDS011;1652;51.318;6.202;2023-02-01T10:41:40;16.87;;;4.20;;
3280;SDS011;1652;51.318;6.202;2023-02-01T10:44:11;15.33;;;4.00;;
3280;SDS011;1652;51.318;6.202;2023-02-01T10:46:41;22.87;;;4.70;;
3280;SDS011;1652;51.318;6.202;2023-02-01T10:49:12;23.30;;;4.60;;
3280;SDS011;1652;51.318;6.202;2023-02-01T10:51:47;13.33;;;3.80;;
3280;SDS011;1652;51.318;6.202;2023-02-01T10:54:31;13.33;;;3.50;;
3280;SDS011;1652;51.318;6.202;2023-02-01T10:57:10;12.50;;;3.70;;
3280;SDS011;1652;51.318;6.202;2023-02-01T10:59:47;7.80;;;3.30;;
3280;SDS011;1652;51.318;6.202;2023-02-01T11:02:31;14.13;;;4.43;;
3280;SDS011;1652;51.318;6.202;2023-02-01T11:07:38;15.23;;;4.40;;
3280;SDS011;1652;51.318;6.202;2023-02-01T11:13:04;11.87;;;3.40;;
3280;SDS011;1652;51.318;6.202;2023-02-01T11:15:31;18.70;;;3.70;;
3280;SDS011;1652;51.318;6.202;2023-02-01T11:17:58;15.83;;;3.80;;
3280;SDS011;1652;51.318;6.202;2023-02-01T11:20:42;14.10;;;4.33;;
3280;SDS011;1652;51.318;6.202;2023-02-01T11:23:16;11.43;;;3.70;;
3280;SDS011;1652;51.318;6.202;2023-02-01T11:25:49;14.90;;;3.90;;
3280;SDS011;1652;51.318;6.202;2023-02-01T11:28:23;29.13;;;4.57;;
3280;SDS011;1652;51.318;6.202;2023-02-01T11:30:53;14.27;;;5.23;;
3280;SDS011;1652;51.318;6.202;2023-02-01T11:33:26;12.87;;;3.70;;
3280;SDS011;1652;51.318;6.202;2023-02-01T11:35:57;15.43;;;3.50;;
3280;SDS011;1652;51.318;6.202;2023-02-01T11:38:31;17.20;;;4.17;;
3280;SDS011;1652;51.318;6.202;2023-02-01T11:41:10;9.60;;;3.33;;
3280;SDS011;1652;51.318;6.202;2023-02-01T11:43:50;20.23;;;6.40;;
3280;SDS011;1652;51.318;6.202;2023-02-01T11:46:21;16.77;;;5.17;;
3280;SDS011;1652;51.318;6.202;2023-02-01T11:48:52;11.50;;;3.60;;
3280;SDS011;1652;51.318;6.202;2023-02-01T11:56:53;14.83;;;3.90;;
3280;SDS011;1652;51.318;6.202;2023-02-01T12:02:20;7.63;;;2.30;;
3280;SDS011;1652;51.318;6.202;2023-02-01T12:05:25;11.03;;;3.00;;
3280;SDS011;1652;51.318;6.202;2023-02-01T12:08:01;18.97;;;2.90;;
3280;SDS011;1652;51.318;6.202;2023-02-01T12:13:44;10.50;;;2.60;;
3280;SDS011;1652;51.318;6.202;2023-02-01T12:16:38;8.53;;;1.93;;
3280;SDS011;1652;51.318;6.202;2023-02-01T12:19:26;12.87;;;2.40;;
3280;SDS011;1652;51.318;6.202;2023-02-01T12:28:12;8.37;;;2.23;;
3280;SDS011;1652;51.318;6.202;2023-02-01T12:30:48;14.03;;;2.70;;
3280;SDS011;1652;51.318;6.202;2023-02-01T12:36:10;17.30;;;2.97;;
3280;SDS011;1652;51.318;6.202;2023-02-01T12:41:24;12.40;;;2.27;;
3280;SDS011;1652;51.318;6.202;2023-02-01T12:44:00;12.03;;;3.00;;
3280;SDS011;1652;51.318;6.202;2023-02-01T12:46:39;9.50;;;2.10;;
3280;SDS011;1652;51.318;6.202;2023-02-01T12:52:16;8.77;;;2.03;;
3280;SDS011;1652;51.318;6.202;2023-02-01T12:54:57;10.70;;;2.30;;
3280;SDS011;1652;51.318;6.202;2023-02-01T12:57:32;6.33;;;2.20;;
3280;SDS011;1652;51.318;6.202;2023-02-01T13:05:28;17.93;;;3.20;;
3280;SDS011;1652;51.318;6.202;2023-02-01T13:10:47;10.80;;;2.20;;
3280;SDS011;1652;51.318;6.202;2023-02-01T13:13:24;9.37;;;3.20;;
3280;SDS011;1652;51.318;6.202;2023-02-01T13:16:02;6.20;;;1.87;;
3280;SDS011;1652;51.318;6.202;2023-02-01T13:18:53;19.10;;;3.43;;
3280;SDS011;1652;51.318;6.202;2023-02-01T13:21:27;11.53;;;1.90;;
3280;SDS011;1652;51.318;6.202;2023-02-01T13:23:58;10.37;;;3.10;;
3280;SDS011;1652;51.318;6.202;2023-02-01T13:26:25;10.90;;;2.20;;
3280;SDS011;1652;51.318;6.202;2023-02-01T13:28:59;13.90;;;2.40;;
3280;SDS011;1652;51.318;6.202;2023-02-01T13:31:45;9.50;;;2.90;;
3280;SDS011;1652;51.318;6.202;2023-02-01T13:37:36;11.60;;;2.77;;
3280;SDS011;1652;51.318;6.202;2023-02-01T13:45:17;7.70;;;3.13;;
3280;SDS011;1652;51.318;6.202;2023-02-01T13:47:49;10.97;;;2.50;;
3280;SDS011;1652;51.318;6.202;2023-02-01T13:50:23;12.87;;;2.53;;
3280;SDS011;1652;51.318;6.202;2023-02-01T13:55:38;8.87;;;3.00;;
3280;SDS011;1652;51.318;6.202;2023-02-01T13:58:13;8.47;;;3.10;;
3280;SDS011;1652;51.318;6.202;2023-02-01T14:00:46;9.90;;;3.07;;
3280;SDS011;1652;51.318;6.202;2023-02-01T14:03:18;5.70;;;2.47;;
3280;SDS011;1652;51.318;6.202;2023-02-01T14:08:23;11.83;;;2.83;;
3280;SDS011;1652;51.318;6.202;2023-02-01T14:11:03;7.63;;;3.17;;
3280;SDS011;1652;51.318;6.202;2023-02-01T14:13:35;10.43;;;2.20;;
3280;SDS011;1652;51.318;6.202;2023-02-01T14:24:29;6.03;;;2.07;;
3280;SDS011;1652;51.318;6.202;2023-02-01T14:26:57;8.10;;;2.20;;
3280;SDS011;1652;51.318;6.202;2023-02-01T14:29:43;12.60;;;2.60;;
3280;SDS011;1652;51.318;6.202;2023-02-01T14:32:21;6.30;;;2.33;;
3280;SDS011;1652;51.318;6.202;2023-02-01T14:34:53;19.53;;;3.20;;
3280;SDS011;1652;51.318;6.202;2023-02-01T14:37:25;10.83;;;2.30;;
3280;SDS011;1652;51.318;6.202;2023-02-01T14:39:59;13.80;;;2.27;;
3280;SDS011;1652;51.318;6.202;2023-02-01T14:42:38;20.37;;;3.07;;
3280;SDS011;1652;51.318;6.202;2023-02-01T14:47:46;22.60;;;2.50;;
3280;SDS011;1652;51.318;6.202;2023-02-01T14:50:18;16.10;;;2.63;;
3280;SDS011;1652;51.318;6.202;2023-02-01T14:52:49;8.73;;;2.40;;
3280;SDS011;1652;51.318;6.202;2023-02-01T14:55:34;24.17;;;3.37;;
3280;SDS011;1652;51.318;6.202;2023-02-01T14:58:04;12.17;;;3.00;;
3280;SDS011;1652;51.318;6.202;2023-02-01T15:00:36;13.97;;;2.47;;
3280;SDS011;1652;51.318;6.202;2023-02-01T15:03:19;17.73;;;3.20;;
3280;SDS011;1652;51.318;6.202;2023-02-01T15:05:54;13.50;;;2.90;;
3280;SDS011;1652;51.318;6.202;2023-02-01T15:08:31;19.50;;;4.63;;
3280;SDS011;1652;51.318;6.202;2023-02-01T15:11:02;12.27;;;2.97;;
3280;SDS011;1652;51.318;6.202;2023-02-01T15:13:32;12.07;;;2.80;;
3280;SDS011;1652;51.318;6.202;2023-02-01T15:16:00;17.97;;;3.80;;
3280;SDS011;1652;51.318;6.202;2023-02-01T15:18:35;17.63;;;3.70;;
3280;SDS011;1652;51.318;6.202;2023-02-01T15:21:02;8.83;;;2.60;;
3280;SDS011;1652;51.318;6.202;2023-02-01T15:23:51;14.90;;;2.97;;
3280;SDS011;1652;51.318;6.202;2023-02-01T15:26:40;10.03;;;2.27;;
3280;SDS011;1652;51.318;6.202;2023-02-01T15:29:10;20.53;;;2.40;;
3280;SDS011;1652;51.318;6.202;2023-02-01T15:31:42;18.17;;;3.70;;
3280;SDS011;1652;51.318;6.202;2023-02-01T15:34:14;5.47;;;1.97;;
3280;SDS011;1652;51.318;6.202;2023-02-01T15:36:42;11.37;;;2.53;;
3280;SDS011;1652;51.318;6.202;2023-02-01T15:39:26;21.13;;;3.50;;
3280;SDS011;1652;51.318;6.202;2023-02-01T15:41:56;22.23;;;5.60;;
3280;SDS011;1652;51.318;6.202;2023-02-01T15:44:40;23.40;;;4.70;;
3280;SDS011;1652;51.318;6.202;2023-02-01T15:47:15;22.27;;;4.83;;
3280;SDS011;1652;51.318;6.202;2023-02-01T15:49:45;15.43;;;3.90;;
3280;SDS011;1652;51.318;6.202;2023-02-01T15:54:53;14.57;;;4.30;;
3280;SDS011;1652;51.318;6.202;2023-02-01T15:57:27;9.90;;;2.70;;
3280;SDS011;1652;51.318;6.202;2023-02-01T16:00:00;13.83;;;3.07;;
3280;SDS011;1652;51.318;6.202;2023-02-01T16:02:37;17.00;;;2.57;;
3280;SDS011;1652;51.318;6.202;2023-02-01T16:08:06;16.60;;;3.00;;
3280;SDS011;1652;51.318;6.202;2023-02-01T16:10:44;7.70;;;2.30;;
3280;SDS011;1652;51.318;6.202;2023-02-01T16:13:17;17.00;;;3.23;;
3280;SDS011;1652;51.318;6.202;2023-02-01T16:16:07;13.73;;;3.27;;
3280;SDS011;1652;51.318;6.202;2023-02-01T16:18:40;11.90;;;2.47;;
3280;SDS011;1652;51.318;6.202;2023-02-01T16:21:09;11.57;;;3.50;;
3280;SDS011;1652;51.318;6.202;2023-02-01T16:23:43;7.80;;;2.23;;
3280;SDS011;1652;51.318;6.202;2023-02-01T16:26:14;13.80;;;3.23;;
3280;SDS011;1652;51.318;6.202;2023-02-01T16:28:40;17.93;;;2.93;;
3280;SDS011;1652;51.318;6.202;2023-02-01T16:31:14;17.07;;;2.80;;
3280;SDS011;1652;51.318;6.202;2023-02-01T16:33:47;15.40;;;3.37;;
3280;SDS011;1652;51.318;6.202;2023-02-01T16:36:16;15.60;;;4.20;;
3280;SDS011;1652;51.318;6.202;2023-02-01T16:38:44;16.73;;;3.40;;
3280;SDS011;1652;51.318;6.202;2023-02-01T16:41:22;16.50;;;3.20;;
3280;SDS011;1652;51.318;6.202;2023-02-01T16:43:51;18.67;;;3.17;;
3280;SDS011;1652;51.318;6.202;2023-02-01T16:46:25;24.70;;;9.87;;
3280;SDS011;1652;51.318;6.202;2023-02-01T16:48:58;19.77;;;8.63;;
3280;SDS011;1652;51.318;6.202;2023-02-01T16:51:26;24.40;;;3.90;;
3280;SDS011;1652;51.318;6.202;2023-02-01T16:53:58;9.67;;;2.80;;
3280;SDS011;1652;51.318;6.202;2023-02-01T16:56:33;8.47;;;2.40;;
3280;SDS011;1652;51.318;6.202;2023-02-01T16:59:02;7.33;;;2.60;;
3280;SDS011;1652;51.318;6.202;2023-02-01T17:01:29;12.53;;;2.70;;
3280;SDS011;1652;51.318;6.202;2023-02-01T17:03:57;13.63;;;4.00;;
3280;SDS011;1652;51.318;6.202;2023-02-01T17:06:24;14.00;;;2.50;;
3280;SDS011;1652;51.318;6.202;2023-02-01T17:08:54;12.80;;;2.80;;
3280;SDS011;1652;51.318;6.202;2023-02-01T17:11:32;18.77;;;3.30;;
3280;SDS011;1652;51.318;6.202;2023-02-01T17:16:57;16.03;;;3.10;;
3280;SDS011;1652;51.318;6.202;2023-02-01T17:19:26;17.27;;;5.23;;
3280;SDS011;1652;51.318;6.202;2023-02-01T17:21:56;16.93;;;2.63;;
3280;SDS011;1652;51.318;6.202;2023-02-01T17:24:30;20.97;;;4.47;;
3280;SDS011;1652;51.318;6.202;2023-02-01T17:27:16;13.77;;;3.03;;
3280;SDS011;1652;51.318;6.202;2023-02-01T17:29:44;23.97;;;3.20;;
3280;SDS011;1652;51.318;6.202;2023-02-01T17:32:16;9.10;;;2.70;;
3280;SDS011;1652;51.318;6.202;2023-02-01T17:34:48;10.70;;;3.00;;
3280;SDS011;1652;51.318;6.202;2023-02-01T17:37:23;15.40;;;4.20;;
3280;SDS011;1652;51.318;6.202;2023-02-01T17:39:52;15.83;;;3.10;;
3280;SDS011;1652;51.318;6.202;2023-02-01T17:42:22;13.17;;;5.07;;